Time;durP1;ratioP1;P1;durP2;ratioP2;P2;SDS_P1;SDS_P2;PMS_P1;PMS_P2;Temp;Humidity;BMP_temperature;BMP_pressure;BME280_temperature;BME280_humidity;BME280_pressure;Samples;Min_cycle;Max_cycle;Signal;HPM_P1;HPM_P2
2023/11/01 07:58:47;;;;;;;;;;;;;;;14.59;100.00;99142.58;1731864;81;20138;-69
2023/11/01 08:01:18;;;;;;;;;;;;;;;14.64;100.00;99149.55;1729359;82;20158;-68
2023/11/01 08:06:21;;;;;;;;;;;;;;;14.81;100.00;99158.55;1732083;82;20152;-67
2023/11/01 08:09:01;;;;;;;;;;;;;;;14.90;100.00;99152.98;1722970;82;20129;-73
2023/11/01 08:14:11;;;;;;;;;;;;;;;15.00;100.00;99163.84;1731228;82;20126;-72
2023/11/01 08:16:41;;;;;;;;;;;;;;;15.09;100.00;99157.45;1730415;82;20146;-71
2023/11/01 08:19:09;;;;;;;;;;;;;;;15.17;100.00;99159.74;1750759;82;20293;-71
2023/11/01 08:21:36;;;;;;;;;;;;;;;15.27;100.00;99143.99;1740128;81;20162;-73
2023/11/01 08:26:40;;;;;;;;;;;;;;;15.41;100.00;99131.78;1747195;82;20412;-68
2023/11/01 08:29:09;;;;;;;;;;;;;;;15.49;100.00;99138.97;1732156;82;20132;-70
2023/11/01 08:31:38;;;;;;;;;;;;;;;15.57;100.00;99143.90;1739030;81;20100;-71
2023/11/01 08:34:09;;;;;;;;;;;;;;;15.65;100.00;99142.70;1741960;82;20186;-67
2023/11/01 08:36:36;;;;;;;;;;;;;;;15.77;100.00;99143.86;1744866;82;20142;-67
2023/11/01 08:39:02;;;;;;;;;;;;;;;15.84;100.00;99141.02;1741944;81;20171;-72
2023/11/01 08:41:29;;;;;;;;;;;;;;;15.89;100.00;99135.70;1742251;82;20141;-74
2023/11/01 08:47:42;;;;;;;;;;;;;;;15.95;100.00;99143.01;1729270;82;20197;-74
2023/11/01 08:50:13;;;;;;;;;;;;;;;15.97;100.00;99143.70;1697559;82;20087;-69
2023/11/01 08:58:02;;;;;;;;;;;;;;;16.12;100.00;99151.10;1746126;81;20138;-70
2023/11/01 09:00:30;;;;;;;;;;;;;;;16.19;100.00;99156.95;1742168;82;20380;-67
2023/11/01 09:02:58;;;;;;;;;;;;;;;16.25;100.00;99155.08;1769589;79;20140;-68
2023/11/01 09:05:31;;;;;;;;;;;;;;;16.32;100.00;99156.16;1735630;81;20105;-71
2023/11/01 09:10:32;;;;;;;;;;;;;;;16.43;100.00;99154.30;1763491;81;20093;-70
2023/11/01 09:12:59;;;;;;;;;;;;;;;16.48;100.00;99154.70;1720085;83;20184;-72
2023/11/01 09:18:17;;;;;;;;;;;;;;;16.56;100.00;99157.44;1753548;81;20097;-74
2023/11/01 09:20:45;;;;;;;;;;;;;;;16.62;100.00;99161.63;1736899;82;20162;-74
2023/11/01 09:23:11;;;;;;;;;;;;;;;16.68;100.00;99166.00;1737050;82;20443;-68
2023/11/01 09:25:48;;;;;;;;;;;;;;;16.71;100.00;99166.53;1764063;81;20408;-72
2023/11/01 09:28:21;;;;;;;;;;;;;;;16.72;100.00;99163.42;1759944;81;20224;-69
2023/11/01 09:33:14;;;;;;;;;;;;;;;16.74;100.00;99166.73;1763479;81;20113;-70
2023/11/01 09:35:41;;;;;;;;;;;;;;;16.72;100.00;99167.36;1756493;81;20542;-67
2023/11/01 09:38:14;;;;;;;;;;;;;;;16.67;100.00;99158.59;1758782;81;20137;-71
2023/11/01 09:40:40;;;;;;;;;;;;;;;16.63;100.00;99159.34;1755880;81;20550;-70
2023/11/01 09:43:09;;;;;;;;;;;;;;;16.59;100.00;99163.72;1749737;81;20169;-70
2023/11/01 09:45:36;;;;;;;;;;;;;;;16.51;100.00;99161.81;1751794;81;20122;-68
2023/11/01 09:48:03;;;;;;;;;;;;;;;16.47;100.00;99167.50;1756411;81;20098;-68
2023/11/01 09:50:35;;;;;;;;;;;;;;;16.43;100.00;99166.95;1749937;81;20087;-71
2023/11/01 09:52:59;;;;;;;;;;;;;;;16.39;100.00;99170.04;1758295;81;20459;-69
2023/11/01 09:55:25;;;;;;;;;;;;;;;16.34;100.00;99169.98;1751068;81;20197;-70
2023/11/01 09:57:52;;;;;;;;;;;;;;;16.29;100.00;99170.07;1755323;81;20101;-67
2023/11/01 10:00:27;;;;;;;;;;;;;;;16.22;100.00;99164.55;1750531;81;20205;-67
2023/11/01 10:02:56;;;;;;;;;;;;;;;16.17;100.00;99167.27;1766270;81;20125;-68
2023/11/01 10:10:28;;;;;;;;;;;;;;;16.06;100.00;99159.55;1759754;81;20440;-68
2023/11/01 10:12:55;;;;;;;;;;;;;;;16.03;100.00;99172.47;1758396;80;20184;-68
2023/11/01 10:15:22;;;;;;;;;;;;;;;16.01;100.00;99170.47;1763206;81;20368;-69
2023/11/01 10:17:54;;;;;;;;;;;;;;;16.00;100.00;99172.75;1759867;81;20168;-71
2023/11/01 10:23:41;;;;;;;;;;;;;;;15.92;100.00;99177.42;1747987;81;20257;-69
2023/11/01 10:26:19;;;;;;;;;;;;;;;15.87;100.00;99178.33;1766494;81;20114;-74
2023/11/01 10:28:56;;;;;;;;;;;;;;;15.84;100.00;99173.35;1749826;81;20170;-70
2023/11/01 10:31:27;;;;;;;;;;;;;;;15.84;100.00;99169.90;1751166;81;20161;-71
2023/11/01 10:34:15;;;;;;;;;;;;;;;15.85;100.00;99166.30;1744333;81;20095;-69
2023/11/01 10:37:08;;;;;;;;;;;;;;;15.86;100.00;99162.71;1725731;81;20103;-69
2023/11/01 10:39:39;;;;;;;;;;;;;;;15.87;100.00;99159.95;1739701;80;20153;-70
2023/11/01 10:42:14;;;;;;;;;;;;;;;15.88;100.00;99156.35;1758606;81;20165;-68
2023/11/01 10:45:05;;;;;;;;;;;;;;;15.91;100.00;99162.64;1747702;81;20178;-67
2023/11/01 10:50:18;;;;;;;;;;;;;;;15.93;100.00;99157.25;1747823;80;20128;-69
2023/11/01 10:52:48;;;;;;;;;;;;;;;15.92;100.00;99156.42;1761925;81;20161;-68
2023/11/01 11:03:13;;;;;;;;;;;;;;;16.05;100.00;99156.58;1731601;81;20188;-67
2023/11/01 11:05:40;;;;;;;;;;;;;;;16.08;100.00;99141.84;1764024;81;20165;-74
2023/11/01 11:08:11;;;;;;;;;;;;;;;16.15;100.00;99149.02;1726648;81;20149;-67
2023/11/01 11:10:40;;;;;;;;;;;;;;;16.19;100.00;99145.63;1742510;81;20173;-66
2023/11/01 11:13:22;;;;;;;;;;;;;;;16.21;100.00;99149.77;1758173;81;20407;-68
2023/11/01 11:15:56;;;;;;;;;;;;;;;16.24;100.00;99148.66;1762409;81;20114;-68
2023/11/01 11:18:21;;;;;;;;;;;;;;;16.26;100.00;99144.08;1764860;81;20114;-68
2023/11/01 11:20:49;;;;;;;;;;;;;;;16.28;100.00;99148.71;1766349;81;20107;-74
2023/11/01 11:23:19;;;;;;;;;;;;;;;16.26;100.00;99145.39;1733965;81;20110;-69
2023/11/01 11:25:50;;;;;;;;;;;;;;;16.25;100.00;99159.50;1766233;81;20110;-68
2023/11/01 11:28:32;;;;;;;;;;;;;;;16.23;100.00;99157.50;1766297;81;20404;-68
2023/11/01 11:31:12;;;;;;;;;;;;;;;16.20;100.00;99162.55;1761823;81;20136;-71
2023/11/01 11:33:48;;;;;;;;;;;;;;;16.14;100.00;99159.67;1736058;83;20418;-68
2023/11/01 11:36:28;;;;;;;;;;;;;;;16.08;100.00;99149.73;1730546;83;20097;-69
2023/11/01 11:38:55;;;;;;;;;;;;;;;16.01;100.00;99151.61;1747044;81;20102;-69
2023/11/01 11:41:29;;;;;;;;;;;;;;;15.93;100.00;99162.02;1766183;81;20126;-69
2023/11/01 11:44:13;;;;;;;;;;;;;;;15.86;100.00;99157.46;1762274;81;20120;-67
2023/11/01 11:46:48;;;;;;;;;;;;;;;15.79;100.00;99160.30;1765343;81;20146;-69
2023/11/01 11:49:24;;;;;;;;;;;;;;;15.70;100.00;99164.59;1738208;81;20140;-69
2023/11/01 11:51:54;;;;;;;;;;;;;;;15.63;100.00;99166.11;1755040;81;20128;-70
2023/11/01 11:54:22;;;;;;;;;;;;;;;15.55;100.00;99174.67;1757462;81;20186;-69
2023/11/01 11:56:55;;;;;;;;;;;;;;;15.47;100.00;99168.45;1753421;81;20134;-69
2023/11/01 11:59:22;;;;;;;;;;;;;;;15.41;100.00;99171.62;1756199;81;20095;-69
